Terminal Aerodrome Forecast
Issued by NWS

Home | Current Version | Previous Version | Text Only | Print | Product List | Glossary On
Versions: 1 2 3 4 5 6 7 8 9 10 11 12 13 14 15
000
FTUS45 KABQ 250223 AAA
TAFFMN
TAF AMD
KFMN 250223Z 2502/2524 VRB06KT P6SM VCSH SCT070 BKN120
      TEMPO 2502/2504 VRB15G30KT 3SM -TSRA OVC060CB
     FM250800 09008KT P6SM SCT080 BKN120
     FM251800 26010KT P6SM SCT080
     FM252200 26010KT P6SM VCTS BKN080CB=

USA.gov is the U.S. government's official web portal to all federal, state and local government web resources and services.